createdAt,value
2019-01-30T00:04:05.811Z,93
2019-01-30T00:09:34.487Z,93
2019-01-30T00:15:03.207Z,93
2019-01-30T00:20:31.905Z,93
2019-01-30T00:25:59.673Z,93
2019-01-30T00:31:27.387Z,93
2019-01-30T00:36:55.078Z,93
2019-01-30T00:42:22.815Z,93
2019-01-30T00:47:51.499Z,93
2019-01-30T00:53:19.875Z,93
2019-01-30T00:58:46.961Z,93
2019-01-30T01:04:14.614Z,93
2019-01-30T01:09:43.303Z,93
2019-01-30T01:15:11.053Z,93
2019-01-30T01:20:38.684Z,93
2019-01-30T01:26:06.341Z,93
2019-01-30T01:31:34.114Z,93
2019-01-30T01:37:02.789Z,93
2019-01-30T01:42:30.519Z,93
2019-01-30T01:47:59.211Z,93
2019-01-30T01:53:26.827Z,93
2019-01-30T01:58:54.590Z,93
2019-01-30T02:04:22.235Z,93
2019-01-30T02:09:49.925Z,93
2019-01-30T02:15:18.607Z,93
2019-01-30T02:20:47.309Z,93
2019-01-30T02:26:14.957Z,93
2019-01-30T02:31:42.643Z,93
2019-01-30T02:37:11.437Z,93
2019-01-30T02:42:40.022Z,93
2019-01-30T02:48:07.712Z,93
2019-01-30T02:53:36.393Z,93
2019-01-30T02:59:04.097Z,93
2019-01-30T03:04:32.796Z,93
2019-01-30T03:10:00.533Z,93
2019-01-30T03:15:28.129Z,93
2019-01-30T03:20:56.841Z,93
2019-01-30T03:26:24.591Z,93
2019-01-30T03:31:53.291Z,93
2019-01-30T03:37:21.915Z,93
2019-01-30T03:42:49.590Z,93
2019-01-30T03:48:17.250Z,93
2019-01-30T03:53:45.977Z,93
2019-01-30T04:04:42.269Z,93
2019-01-30T04:10:11.149Z,93
2019-01-30T04:15:38.672Z,92
2019-01-30T04:21:07.304Z,93
2019-01-30T04:26:34.990Z,93
2019-01-30T04:32:03.744Z,93
2019-01-30T04:37:32.409Z,93
2019-01-30T04:43:00.034Z,92
2019-01-30T04:48:28.827Z,92
2019-01-30T04:53:57.409Z,92
2019-01-30T04:59:26.127Z,92
2019-01-30T05:04:53.757Z,92
2019-01-30T05:10:22.506Z,92
2019-01-30T05:15:50.256Z,92
2019-01-30T05:21:17.854Z,92
2019-01-30T05:26:45.584Z,92
2019-01-30T05:32:14.211Z,92
2019-01-30T05:37:42.882Z,92
2019-01-30T05:43:10.613Z,92
2019-01-30T05:48:39.240Z,92
2019-01-30T05:54:06.984Z,93
2019-01-30T05:59:35.642Z,93
2019-01-30T06:05:03.406Z,93
2019-01-30T06:10:31.889Z,92
2019-01-30T06:16:00.579Z,92
2019-01-30T06:21:28.222Z,92
2019-01-30T06:26:55.978Z,92
2019-01-30T06:32:24.594Z,92
2019-01-30T06:37:52.256Z,92
2019-01-30T06:43:19.922Z,92
2019-01-30T06:48:48.510Z,92
2019-01-30T06:54:16.190Z,92
2019-01-30T06:59:43.826Z,92
2019-01-30T07:05:11.476Z,92
2019-01-30T07:10:39.153Z,92
2019-01-30T07:16:06.814Z,92
2019-01-30T07:21:35.467Z,92
2019-01-30T07:27:03.160Z,92
2019-01-30T07:32:41.809Z,92
2019-01-30T07:38:00.473Z,92
2019-01-30T07:43:28.099Z,92
2019-01-30T07:48:57.200Z,92
2019-01-30T07:54:25.451Z,92
2019-01-30T07:59:53.143Z,92
2019-01-30T08:05:22.669Z,92
2019-01-30T08:10:49.486Z,92
2019-01-30T08:16:17.181Z,92
2019-01-30T08:27:14.573Z,92
2019-01-30T08:32:43.603Z,92
2019-01-30T08:38:12.069Z,92
2019-01-30T08:43:39.632Z,92
2019-01-30T08:49:07.293Z,92
2019-01-30T08:54:35.049Z,92
2019-01-30T09:00:03.823Z,92
2019-01-30T09:05:32.488Z,92
2019-01-30T09:11:01.260Z,92
2019-01-30T09:16:28.905Z,92
2019-01-30T09:21:57.727Z,92
2019-01-30T09:27:25.389Z,92
2019-01-30T09:32:55.425Z,92
2019-01-30T09:38:21.913Z,92
2019-01-30T09:43:49.645Z,92
2019-01-30T09:49:18.354Z,92
2019-01-30T09:54:46.135Z,92
2019-01-30T10:00:14.894Z,92
2019-01-30T10:05:43.710Z,92
2019-01-30T10:11:11.392Z,92
2019-01-30T10:16:40.455Z,92
2019-01-30T10:22:07.931Z,92
2019-01-30T10:27:36.738Z,92
2019-01-30T10:33:05.523Z,92
2019-01-30T10:38:33.252Z,92
2019-01-30T10:44:01.009Z,91
2019-01-30T10:49:28.813Z,91
2019-01-30T10:54:56.600Z,91
2019-01-30T11:00:25.478Z,91
2019-01-30T11:05:54.217Z,91
2019-01-30T11:11:23.743Z,91
2019-01-30T11:16:50.763Z,91
2019-01-30T11:22:19.643Z,91
2019-01-30T11:27:47.402Z,91
2019-01-30T11:33:15.169Z,91
2019-01-30T11:38:44.016Z,91
2019-01-30T11:44:12.875Z,91
2019-01-30T11:49:40.581Z,91
2019-01-30T11:55:08.516Z,90
2019-01-30T12:00:37.265Z,90
2019-01-30T12:06:05.169Z,90
2019-01-30T12:11:32.917Z,90
2019-01-30T12:17:00.780Z,90
2019-01-30T12:22:29.615Z,90
2019-01-30T12:27:58.367Z,90
2019-01-30T12:33:26.561Z,90
2019-01-30T12:38:54.053Z,90
2019-01-30T12:44:21.966Z,90
2019-01-30T12:49:50.821Z,90
2019-01-30T12:55:19.615Z,90
2019-01-30T13:00:48.484Z,90
2019-01-30T13:06:16.445Z,89
2019-01-30T13:11:45.199Z,89
2019-01-30T13:17:13.029Z,89
2019-01-30T13:22:40.933Z,89
2019-01-30T13:28:08.895Z,89
2019-01-30T13:33:36.679Z,89
2019-01-30T13:39:04.570Z,89
2019-01-30T13:44:33.444Z,89
2019-01-30T13:50:03.767Z,89
2019-01-30T13:55:30.217Z,89
2019-01-30T14:00:58.964Z,89
2019-01-30T14:06:26.787Z,88
2019-01-30T14:11:57.187Z,89
2019-01-30T14:17:23.440Z,89
2019-01-30T14:22:52.311Z,89
2019-01-30T14:28:21.105Z,89
2019-01-30T14:33:49.865Z,89
2019-01-30T14:39:17.747Z,89
2019-01-30T14:44:46.563Z,89
2019-01-30T14:50:15.273Z,89
2019-01-30T14:55:43.116Z,89
2019-01-30T15:01:10.869Z,88
2019-01-30T15:06:38.667Z,88
2019-01-30T15:12:07.467Z,88
2019-01-30T15:17:35.353Z,89
2019-01-30T15:23:04.270Z,89
2019-01-30T15:28:31.887Z,89
2019-01-30T15:33:59.659Z,88
2019-01-30T15:39:28.448Z,88
2019-01-30T15:44:57.239Z,88
2019-01-30T15:50:25.001Z,88
2019-01-30T15:55:52.784Z,88
2019-01-30T16:01:21.590Z,88
2019-01-30T16:06:50.497Z,88
2019-01-30T16:12:18.129Z,88
2019-01-30T16:17:45.940Z,88
2019-01-30T16:23:14.743Z,88
2019-01-30T16:28:43.448Z,88
2019-01-30T16:34:11.197Z,88
2019-01-30T16:39:39.991Z,88
2019-01-30T16:45:08.778Z,88
2019-01-30T16:50:37.580Z,88
2019-01-30T16:56:06.317Z,88
2019-01-30T17:07:03.980Z,88
2019-01-30T17:12:32.675Z,88
2019-01-30T17:18:00.406Z,88
2019-01-30T17:23:28.197Z,88
2019-01-30T17:28:56.945Z,87
2019-01-30T17:34:24.739Z,87
2019-01-30T17:39:52.483Z,87
2019-01-30T17:45:20.359Z,87
2019-01-30T17:50:48.183Z,87
2019-01-30T17:56:15.843Z,87
2019-01-30T18:01:43.657Z,87
2019-01-30T18:07:11.451Z,87
2019-01-30T18:12:40.432Z,87
2019-01-30T18:18:08.014Z,87
2019-01-30T18:23:36.769Z,87
2019-01-30T18:29:04.622Z,87
2019-01-30T18:34:32.424Z,87
2019-01-30T18:40:00.440Z,87
2019-01-30T18:45:27.913Z,87
2019-01-30T18:50:56.876Z,87
2019-01-30T18:56:23.432Z,87
2019-01-30T19:01:51.261Z,87
2019-01-30T19:07:19.027Z,87
2019-01-30T19:12:47.780Z,87
2019-01-30T19:18:16.575Z,87
2019-01-30T19:23:45.376Z,87
2019-01-30T19:29:13.168Z,87
2019-01-30T19:34:40.891Z,87
2019-01-30T19:40:08.710Z,86
2019-01-30T19:45:37.471Z,86
2019-01-30T19:51:05.224Z,86
2019-01-30T19:56:36.992Z,86
2019-01-30T20:02:02.524Z,86
2019-01-30T20:07:33.887Z,86
2019-01-30T20:13:00.389Z,86
2019-01-30T20:18:33.022Z,86
2019-01-30T20:23:54.859Z,86
2019-01-30T20:29:38.503Z,86
2019-01-30T20:34:53.518Z,86
2019-01-30T20:40:30.399Z,86
2019-01-30T20:45:57.989Z,86
2019-01-30T20:51:16.517Z,86
2019-01-30T20:56:47.753Z,86
2019-01-30T21:02:12.497Z,86
2019-01-30T21:07:41.480Z,86
2019-01-30T21:13:10.414Z,86
2019-01-30T21:18:44.300Z,86
2019-01-30T21:24:09.603Z,86
2019-01-30T21:29:43.244Z,86
2019-01-30T21:35:12.775Z,86
2019-01-30T21:40:28.837Z,86
2019-01-30T21:46:07.585Z,86
2019-01-30T21:51:30.092Z,86
2019-01-30T21:56:56.620Z,86
2019-01-30T22:02:24.973Z,86
2019-01-30T22:08:11.358Z,86
2019-01-30T22:13:34.411Z,86
2019-01-30T22:18:52.738Z,86
2019-01-30T22:24:19.211Z,86
2019-01-30T22:29:46.026Z,86
2019-01-30T22:35:15.647Z,86
2019-01-30T22:40:51.835Z,86
2019-01-30T22:46:19.721Z,86
2019-01-30T22:51:39.168Z,86
2019-01-30T22:57:12.864Z,86
2019-01-30T23:02:35.210Z,86
2019-01-30T23:08:22.790Z,86
2019-01-30T23:13:33.103Z,87
2019-01-30T23:19:04.123Z,87
2019-01-30T23:24:29.590Z,87
2019-01-30T23:30:01.442Z,87
2019-01-30T23:35:27.145Z,87
2019-01-30T23:40:55.301Z,87
2019-01-30T23:46:32.710Z,87
2019-01-30T23:52:04.696Z,87
2019-01-30T23:57:19.629Z,87
